createdAt,value
2022-11-16T00:01:24.066Z,8.10
2022-11-16T00:03:51.264Z,8.10
2022-11-16T00:06:18.166Z,8.10
2022-11-16T00:08:45.546Z,8.10
2022-11-16T00:11:15.758Z,8.10
2022-11-16T00:13:42.768Z,8.10
2022-11-16T00:16:13.612Z,8.10
2022-11-16T00:18:40.238Z,8.10
2022-11-16T00:21:06.904Z,8.00
2022-11-16T00:23:35.630Z,8.00
2022-11-16T00:26:09.878Z,8.10
2022-11-16T00:28:36.698Z,8.00
2022-11-16T00:31:03.970Z,8.00
2022-11-16T00:33:30.612Z,8.00
2022-11-16T00:35:57.401Z,8.00
2022-11-16T00:38:24.131Z,8.00
2022-11-16T00:40:50.954Z,8.00
2022-11-16T00:43:17.570Z,8.00
2022-11-16T00:45:44.294Z,8.00
2022-11-16T00:48:11.055Z,8.10
2022-11-16T00:50:37.718Z,8.00
2022-11-16T00:53:04.708Z,8.00
2022-11-16T00:55:31.648Z,8.10
2022-11-16T00:57:58.282Z,8.10
2022-11-16T01:00:24.938Z,8.10
2022-11-16T01:02:54.412Z,8.10
2022-11-16T01:05:21.384Z,8.10
2022-11-16T01:07:48.151Z,8.10
2022-11-16T01:10:15.657Z,8.10
2022-11-16T01:12:42.281Z,8.10
2022-11-16T01:15:09.151Z,8.10
2022-11-16T01:17:36.536Z,8.10
2022-11-16T01:20:05.942Z,8.00
2022-11-16T01:22:35.150Z,8.10
2022-11-16T01:25:02.014Z,8.10
2022-11-16T01:27:29.164Z,8.10
2022-11-16T01:29:56.064Z,8.00
2022-11-16T01:32:23.455Z,8.10
2022-11-16T01:34:50.812Z,8.00
2022-11-16T01:37:17.881Z,7.80
2022-11-16T01:39:44.532Z,8.10
2022-11-16T01:42:15.395Z,8.10
2022-11-16T01:44:42.052Z,8.10
2022-11-16T01:47:09.649Z,8.10
2022-11-16T01:49:38.466Z,8.10
2022-11-16T01:52:06.820Z,8.10
2022-11-16T01:54:34.538Z,8.10
2022-11-16T01:57:02.069Z,8.10
2022-11-16T01:59:29.035Z,8.10
2022-11-16T02:01:56.997Z,8.00
2022-11-16T02:04:23.638Z,8.10
2022-11-16T02:07:05.950Z,8.00
2022-11-16T02:09:54.126Z,8.00
2022-11-16T02:12:20.728Z,8.00
2022-11-16T02:15:06.171Z,8.00
2022-11-16T02:17:38.975Z,8.00
2022-11-16T02:20:09.499Z,7.90
2022-11-16T02:22:45.377Z,7.90
2022-11-16T02:25:18.649Z,8.00
2022-11-16T02:27:57.585Z,7.90
2022-11-16T02:30:24.249Z,7.90
2022-11-16T02:33:09.665Z,7.90
2022-11-16T02:35:43.591Z,7.90
2022-11-16T02:38:20.177Z,8.00
2022-11-16T02:40:47.741Z,7.90
2022-11-16T02:43:18.145Z,7.90
2022-11-16T02:45:45.851Z,7.90
2022-11-16T02:48:14.401Z,7.90
2022-11-16T02:50:41.054Z,7.90
2022-11-16T02:53:07.673Z,7.90
2022-11-16T02:55:34.420Z,7.90
2022-11-16T02:58:01.367Z,7.90
2022-11-16T03:00:48.379Z,7.90
2022-11-16T03:03:24.312Z,7.80
2022-11-16T03:06:14.323Z,7.80
2022-11-16T03:09:04.304Z,7.80
2022-11-16T03:11:50.235Z,7.80
2022-11-16T03:14:18.164Z,7.80
2022-11-16T03:16:46.051Z,7.80
2022-11-16T03:19:13.690Z,7.80
2022-11-16T03:21:41.880Z,7.80
2022-11-16T03:24:08.640Z,7.80
2022-11-16T03:26:39.609Z,7.80
2022-11-16T03:29:13.717Z,7.80
2022-11-16T03:31:46.129Z,7.80
2022-11-16T03:34:16.179Z,7.80
2022-11-16T03:36:43.116Z,7.80
2022-11-16T03:39:15.551Z,7.80
2022-11-16T03:41:42.251Z,7.80
2022-11-16T03:44:08.993Z,7.80
2022-11-16T03:46:35.734Z,7.80
2022-11-16T03:49:02.452Z,7.80
2022-11-16T03:51:29.095Z,7.80
2022-11-16T03:53:55.766Z,7.80
2022-11-16T03:56:22.468Z,7.80
2022-11-16T03:58:49.113Z,7.80
2022-11-16T04:01:15.825Z,7.80
2022-11-16T04:03:42.539Z,7.80
2022-11-16T04:06:27.923Z,7.80
2022-11-16T04:09:13.153Z,7.70
2022-11-16T04:12:01.395Z,7.80
2022-11-16T04:14:46.590Z,7.80
2022-11-16T04:17:34.802Z,7.70
2022-11-16T04:20:19.934Z,7.70
2022-11-16T04:23:08.111Z,7.70
2022-11-16T04:25:34.954Z,7.70
2022-11-16T04:28:13.803Z,7.70
2022-11-16T04:30:59.785Z,7.70
2022-11-16T04:33:45.189Z,7.70
2022-11-16T04:36:30.404Z,7.70
2022-11-16T04:38:57.028Z,7.60
2022-11-16T04:41:42.451Z,7.60
2022-11-16T04:44:09.104Z,7.60
2022-11-16T04:46:54.542Z,7.60
2022-11-16T04:49:21.180Z,7.60
2022-11-16T04:51:47.840Z,7.60
2022-11-16T04:54:14.528Z,7.60
2022-11-16T04:56:41.182Z,7.60
2022-11-16T04:59:07.837Z,7.60
2022-11-16T05:01:53.256Z,7.60
2022-11-16T05:04:19.939Z,7.60
2022-11-16T05:06:47.342Z,7.60
2022-11-16T05:09:14.248Z,7.60
2022-11-16T05:11:40.882Z,7.70
2022-11-16T05:14:08.494Z,7.60
2022-11-16T05:16:35.201Z,7.60
2022-11-16T05:19:20.648Z,7.60
2022-11-16T05:21:47.303Z,7.60
2022-11-16T05:24:32.674Z,7.60
2022-11-16T05:26:59.843Z,7.70
2022-11-16T05:29:26.531Z,7.60
2022-11-16T05:31:53.159Z,7.60
2022-11-16T05:34:19.836Z,7.80
2022-11-16T05:36:46.502Z,7.60
2022-11-16T05:39:13.125Z,7.60
2022-11-16T05:41:39.825Z,7.60
2022-11-16T05:44:06.477Z,7.60
2022-11-16T05:46:33.160Z,7.60
2022-11-16T05:48:59.836Z,7.60
2022-11-16T05:51:26.654Z,7.60
2022-11-16T05:53:53.340Z,7.60
2022-11-16T05:56:20.106Z,7.60
2022-11-16T05:58:46.757Z,7.60
2022-11-16T06:01:13.452Z,7.60
2022-11-16T06:03:40.310Z,7.60
2022-11-16T06:06:07.227Z,7.60
2022-11-16T06:08:34.254Z,7.60
2022-11-16T06:11:01.910Z,7.60
2022-11-16T06:13:28.608Z,7.60
2022-11-16T06:15:55.305Z,7.60
2022-11-16T06:18:21.960Z,7.60
2022-11-16T06:20:48.591Z,7.60
2022-11-16T06:23:15.321Z,7.60
2022-11-16T06:25:41.943Z,7.60
2022-11-16T06:28:08.574Z,7.60
2022-11-16T06:30:35.339Z,7.60
2022-11-16T06:33:01.953Z,7.70
2022-11-16T06:35:28.608Z,7.60
2022-11-16T06:37:55.554Z,7.70
2022-11-16T06:40:22.196Z,7.60
2022-11-16T06:42:48.802Z,7.70
2022-11-16T06:45:15.540Z,7.70
2022-11-16T06:47:42.205Z,7.80
2022-11-16T06:50:09.215Z,7.70
2022-11-16T06:52:35.852Z,7.70
2022-11-16T06:55:02.528Z,7.70
2022-11-16T06:57:29.175Z,7.70
2022-11-16T06:59:55.828Z,7.80
2022-11-16T07:02:23.239Z,7.80
2022-11-16T07:04:49.877Z,7.70
2022-11-16T07:07:16.600Z,7.90
2022-11-16T07:09:44.585Z,7.80
2022-11-16T07:12:11.213Z,7.80
2022-11-16T07:14:37.925Z,7.80
2022-11-16T07:17:09.287Z,7.90
2022-11-16T07:19:36.789Z,7.80
2022-11-16T07:22:04.365Z,7.80
2022-11-16T07:24:31.075Z,7.80
2022-11-16T07:26:57.735Z,7.90
2022-11-16T07:29:24.634Z,7.80
2022-11-16T07:31:51.295Z,7.90
2022-11-16T07:34:18.005Z,7.80
2022-11-16T07:36:44.775Z,7.90
2022-11-16T07:39:11.395Z,8.00
2022-11-16T07:41:45.423Z,7.90
2022-11-16T07:44:12.436Z,7.90
2022-11-16T07:46:47.757Z,8.00
2022-11-16T07:49:15.211Z,8.00
2022-11-16T07:51:41.963Z,8.00
2022-11-16T07:54:10.889Z,8.10
2022-11-16T07:56:37.534Z,8.00
2022-11-16T07:59:05.951Z,8.00
2022-11-16T08:01:33.399Z,7.80
2022-11-16T08:04:01.838Z,7.90
2022-11-16T08:06:29.428Z,7.80
2022-11-16T08:08:58.573Z,7.90
2022-11-16T08:11:25.834Z,7.90
2022-11-16T08:13:52.525Z,7.80
2022-11-16T08:16:20.117Z,7.80
2022-11-16T08:18:47.009Z,7.70
2022-11-16T08:21:14.358Z,7.80
2022-11-16T08:23:41.201Z,7.80
2022-11-16T08:26:07.854Z,7.80
2022-11-16T08:28:34.947Z,7.70
2022-11-16T08:31:07.663Z,7.80
2022-11-16T08:33:34.312Z,7.70
2022-11-16T08:36:12.662Z,7.70
2022-11-16T08:38:40.790Z,7.60
2022-11-16T08:41:07.628Z,7.60
2022-11-16T08:43:35.831Z,7.90
2022-11-16T08:46:03.535Z,7.60
2022-11-16T08:48:30.715Z,7.70
2022-11-16T08:51:20.858Z,7.70
2022-11-16T08:53:49.215Z,7.60
2022-11-16T08:56:16.710Z,7.70
2022-11-16T08:58:53.821Z,7.10
2022-11-16T09:01:24.198Z,7.70
2022-11-16T09:03:51.614Z,7.70
2022-11-16T09:06:19.017Z,7.70
2022-11-16T09:08:46.059Z,7.70
2022-11-16T09:11:17.292Z,7.60
2022-11-16T09:13:44.229Z,7.60
2022-11-16T09:16:10.951Z,7.70
2022-11-16T09:18:48.380Z,7.70
2022-11-16T09:21:19.094Z,7.60
2022-11-16T09:23:46.351Z,7.60
2022-11-16T09:26:13.796Z,7.60
2022-11-16T09:28:40.454Z,7.60
2022-11-16T09:31:07.205Z,7.70
2022-11-16T09:33:34.210Z,7.70
2022-11-16T09:36:07.133Z,7.40
2022-11-16T09:39:10.458Z,7.70
2022-11-16T09:41:27.627Z,7.70
2022-11-16T09:43:54.439Z,7.80
2022-11-16T09:46:45.631Z,7.70
2022-11-16T09:49:17.574Z,7.70
2022-11-16T09:51:45.985Z,7.60
2022-11-16T09:54:13.800Z,6.60
2022-11-16T09:56:41.206Z,7.60
2022-11-16T09:59:09.384Z,7.60
2022-11-16T10:01:38.004Z,7.80
2022-11-16T10:04:15.156Z,7.70
2022-11-16T10:06:45.228Z,7.80
2022-11-16T10:09:12.441Z,7.80
2022-11-16T10:11:52.594Z,7.80
2022-11-16T10:17:15.083Z,7.80
2022-11-16T10:19:48.027Z,7.80
2022-11-16T10:22:27.585Z,7.50
2022-11-16T10:24:54.543Z,7.90
2022-11-16T10:27:40.543Z,7.90
2022-11-16T10:30:08.784Z,7.80
2022-11-16T10:32:46.007Z,7.90
2022-11-16T10:35:12.727Z,7.90
2022-11-16T10:37:40.511Z,8.00
2022-11-16T10:40:14.344Z,8.00
2022-11-16T10:42:40.985Z,8.10
2022-11-16T10:45:10.905Z,8.10
2022-11-16T10:47:44.857Z,8.30
2022-11-16T10:50:20.510Z,8.30
2022-11-16T10:52:47.285Z,8.40
2022-11-16T10:55:16.757Z,8.00
2022-11-16T10:58:02.768Z,8.40
2022-11-16T11:00:40.770Z,8.60
2022-11-16T11:03:07.773Z,8.50
2022-11-16T11:05:35.086Z,8.50
2022-11-16T11:08:02.807Z,8.50
2022-11-16T11:10:33.613Z,8.50
2022-11-16T11:13:08.265Z,8.50
2022-11-16T11:15:38.446Z,8.50
2022-11-16T11:18:23.589Z,8.50
2022-11-16T11:20:51.854Z,8.50
2022-11-16T11:23:18.528Z,8.50
2022-11-16T11:25:49.619Z,8.50
2022-11-16T11:28:18.154Z,8.50
2022-11-16T11:31:04.142Z,8.50
2022-11-16T11:33:32.159Z,8.50
2022-11-16T11:36:04.426Z,8.50
2022-11-16T11:38:31.417Z,8.50
2022-11-16T11:40:59.190Z,8.60
2022-11-16T11:43:25.935Z,8.70
2022-11-16T11:46:01.834Z,8.70
2022-11-16T11:48:29.201Z,8.80
2022-11-16T11:50:57.805Z,8.90
2022-11-16T11:53:27.564Z,8.90
2022-11-16T11:55:58.856Z,8.90
2022-11-16T11:58:44.999Z,8.80
2022-11-16T12:01:22.311Z,8.90
2022-11-16T12:03:58.082Z,8.90
2022-11-16T12:06:31.122Z,8.80
2022-11-16T12:09:04.042Z,9.00
2022-11-16T12:11:53.728Z,8.90
2022-11-16T12:14:26.434Z,8.90
2022-11-16T12:16:55.292Z,8.90
2022-11-16T12:19:34.144Z,8.90
2022-11-16T12:22:19.638Z,8.90
2022-11-16T12:24:46.304Z,8.90
2022-11-16T12:27:19.872Z,8.80
2022-11-16T12:29:46.506Z,8.80
2022-11-16T12:32:25.606Z,8.70
2022-11-16T12:34:52.597Z,8.70
2022-11-16T12:37:34.707Z,8.60
2022-11-16T12:40:20.025Z,8.40
2022-11-16T12:42:52.748Z,8.30
2022-11-16T12:45:32.032Z,8.20
2022-11-16T12:48:17.990Z,8.10
2022-11-16T12:50:56.956Z,8.10
2022-11-16T12:53:42.330Z,8.00
2022-11-16T12:56:15.774Z,7.90
2022-11-16T12:59:01.344Z,7.80
2022-11-16T13:02:12.587Z,7.80
2022-11-16T13:04:41.126Z,7.80
2022-11-16T13:07:33.456Z,7.80
2022-11-16T13:10:04.982Z,7.80
2022-11-16T13:12:31.638Z,7.90
2022-11-16T13:14:58.763Z,7.90
2022-11-16T13:17:26.579Z,8.90
2022-11-16T13:20:02.154Z,7.90
2022-11-16T13:22:28.962Z,7.90
2022-11-16T13:24:58.555Z,7.80
2022-11-16T13:27:28.811Z,7.90
2022-11-16T13:29:55.503Z,7.80
2022-11-16T13:32:32.722Z,7.90
2022-11-16T13:34:59.598Z,7.80
2022-11-16T13:37:38.483Z,7.90
2022-11-16T13:40:05.291Z,7.90
2022-11-16T13:42:32.362Z,7.90
2022-11-16T13:45:09.075Z,8.10
2022-11-16T13:47:36.064Z,8.10
2022-11-16T13:50:03.815Z,8.30
2022-11-16T13:53:28.379Z,8.30
2022-11-16T13:55:41.323Z,8.40
2022-11-16T13:58:09.550Z,8.50
2022-11-16T14:00:36.996Z,8.50
2022-11-16T14:03:16.211Z,8.50
2022-11-16T14:05:43.859Z,8.50
2022-11-16T14:08:19.730Z,8.60
2022-11-16T14:10:52.303Z,8.60
2022-11-16T14:13:37.443Z,8.60
2022-11-16T14:16:19.632Z,8.70
2022-11-16T14:18:47.007Z,8.70
2022-11-16T14:21:13.674Z,8.70
2022-11-16T14:23:56.443Z,8.70
2022-11-16T14:26:38.593Z,8.60
2022-11-16T14:29:24.279Z,8.50
2022-11-16T14:31:52.418Z,8.50
2022-11-16T14:34:20.473Z,8.40
2022-11-16T14:36:47.264Z,8.30
2022-11-16T14:39:18.063Z,8.30
2022-11-16T14:41:45.077Z,8.30
2022-11-16T14:44:11.877Z,8.30
2022-11-16T14:46:38.554Z,8.30
2022-11-16T14:49:05.322Z,8.30
2022-11-16T14:51:33.022Z,8.30
2022-11-16T14:54:00.909Z,8.30
2022-11-16T14:56:27.951Z,8.30
2022-11-16T14:58:55.283Z,8.40
2022-11-16T15:01:42.202Z,8.30
2022-11-16T15:04:09.455Z,8.30
2022-11-16T15:06:40.925Z,8.30
2022-11-16T15:09:07.614Z,8.20
2022-11-16T15:11:54.998Z,8.30
2022-11-16T15:14:26.873Z,8.30
2022-11-16T15:16:54.331Z,8.20
2022-11-16T15:19:21.115Z,8.10
2022-11-16T15:21:57.366Z,8.10
2022-11-16T15:24:32.222Z,8.10
2022-11-16T15:27:09.284Z,8.10
2022-11-16T15:29:35.958Z,8.00
2022-11-16T15:32:02.636Z,8.10
2022-11-16T15:34:29.300Z,8.10
2022-11-16T15:36:55.927Z,8.10
2022-11-16T15:39:23.049Z,8.00
2022-11-16T15:41:49.876Z,8.00
2022-11-16T15:44:17.844Z,8.10
2022-11-16T15:46:49.059Z,8.10
2022-11-16T15:49:27.469Z,8.00
2022-11-16T15:51:54.141Z,8.00
2022-11-16T15:54:24.764Z,8.00
2022-11-16T15:56:51.497Z,8.00
2022-11-16T15:59:25.901Z,8.00
2022-11-16T16:01:52.595Z,8.00
2022-11-16T16:04:19.256Z,8.00
2022-11-16T16:06:49.784Z,7.90
2022-11-16T16:09:31.532Z,7.90
2022-11-16T16:12:16.989Z,7.90
2022-11-16T16:14:43.834Z,8.00
2022-11-16T16:17:10.887Z,7.90
2022-11-16T16:19:38.836Z,7.90
2022-11-16T16:22:06.062Z,8.00
2022-11-16T16:24:35.152Z,7.90
2022-11-16T16:27:01.887Z,7.90
2022-11-16T16:29:28.643Z,7.90
2022-11-16T16:31:55.696Z,7.90
2022-11-16T16:34:22.303Z,7.90
2022-11-16T16:36:48.925Z,7.90
2022-11-16T16:39:15.587Z,7.90
2022-11-16T16:41:42.196Z,7.90
2022-11-16T16:44:11.346Z,7.80
2022-11-16T16:46:37.961Z,7.80
2022-11-16T16:49:04.677Z,7.80
2022-11-16T16:51:31.353Z,7.90
2022-11-16T16:54:00.003Z,7.90
2022-11-16T16:56:26.667Z,7.90
2022-11-16T16:58:53.455Z,7.90
2022-11-16T17:01:20.232Z,7.80
2022-11-16T17:03:47.023Z,7.90
2022-11-16T17:06:14.010Z,7.80
2022-11-16T17:08:40.659Z,7.90
2022-11-16T17:11:07.334Z,7.80
2022-11-16T17:13:34.396Z,7.80
2022-11-16T17:16:03.832Z,7.80
2022-11-16T17:18:30.461Z,7.80
2022-11-16T17:21:02.495Z,7.80
2022-11-16T17:23:29.346Z,7.80
2022-11-16T17:25:55.999Z,7.80
2022-11-16T17:28:22.619Z,7.80
2022-11-16T17:30:49.290Z,7.80
2022-11-16T17:33:15.931Z,7.80
2022-11-16T17:35:42.682Z,7.80
2022-11-16T17:38:09.946Z,7.80
2022-11-16T17:40:36.673Z,7.80
2022-11-16T17:43:03.328Z,7.90
2022-11-16T17:45:29.975Z,7.80
2022-11-16T17:47:56.624Z,7.80
2022-11-16T17:50:23.254Z,7.90
2022-11-16T17:52:49.955Z,7.90
2022-11-16T17:55:16.577Z,7.80
2022-11-16T17:57:43.197Z,7.80
2022-11-16T18:00:10.302Z,7.90
2022-11-16T18:02:36.954Z,7.80
2022-11-16T18:05:03.664Z,7.90
2022-11-16T18:07:30.577Z,7.90
2022-11-16T18:09:57.315Z,7.80
2022-11-16T18:12:23.931Z,7.90
2022-11-16T18:15:13.466Z,7.80
2022-11-16T18:17:37.226Z,7.80
2022-11-16T18:20:04.836Z,7.80
2022-11-16T18:22:31.538Z,7.90
2022-11-16T18:24:58.190Z,7.80
2022-11-16T18:27:24.937Z,7.90
2022-11-16T18:29:51.586Z,7.80
2022-11-16T18:32:18.219Z,7.80
2022-11-16T18:34:57.772Z,7.80
2022-11-16T18:37:24.497Z,7.60
2022-11-16T18:39:53.854Z,7.80
2022-11-16T18:42:20.479Z,7.80
2022-11-16T18:44:48.323Z,7.80
2022-11-16T18:47:14.980Z,7.80
2022-11-16T18:49:41.673Z,7.80
2022-11-16T18:52:08.332Z,7.90
2022-11-16T18:54:34.989Z,7.80
2022-11-16T18:57:01.603Z,7.80
2022-11-16T18:59:28.194Z,7.80
2022-11-16T19:01:54.939Z,7.80
2022-11-16T19:04:21.569Z,7.80
2022-11-16T19:06:48.204Z,7.80
2022-11-16T19:09:14.933Z,7.80
2022-11-16T19:11:41.522Z,7.80
2022-11-16T19:14:08.215Z,7.80
2022-11-16T19:16:34.867Z,7.70
2022-11-16T19:19:01.596Z,7.70
2022-11-16T19:21:28.294Z,7.60
2022-11-16T19:23:55.433Z,7.60
2022-11-16T19:26:25.950Z,7.60
2022-11-16T19:28:52.744Z,7.60
2022-11-16T19:31:21.512Z,7.60
2022-11-16T19:33:53.068Z,7.60
2022-11-16T19:36:19.922Z,7.60
2022-11-16T19:38:47.058Z,7.60
2022-11-16T19:41:14.745Z,7.60
2022-11-16T19:43:41.584Z,7.70
2022-11-16T19:46:09.241Z,7.70
2022-11-16T19:48:36.113Z,7.70
2022-11-16T19:51:06.710Z,7.80
2022-11-16T19:53:33.968Z,7.80
2022-11-16T19:56:00.949Z,7.70
2022-11-16T19:58:27.708Z,7.80
2022-11-16T20:01:00.281Z,7.80
2022-11-16T20:03:27.044Z,7.70
2022-11-16T20:05:53.723Z,7.70
2022-11-16T20:08:20.399Z,7.80
2022-11-16T20:10:47.111Z,7.70
2022-11-16T20:13:13.939Z,7.70
2022-11-16T20:15:40.587Z,7.70
2022-11-16T20:18:07.288Z,7.70
2022-11-16T20:20:34.019Z,7.70
2022-11-16T20:23:00.662Z,7.70
2022-11-16T20:25:27.453Z,7.70
2022-11-16T20:27:54.091Z,7.80
2022-11-16T20:30:20.960Z,7.80
2022-11-16T20:32:47.613Z,7.80
2022-11-16T20:35:18.959Z,7.70
2022-11-16T20:37:45.888Z,7.80
2022-11-16T20:40:12.644Z,7.70
2022-11-16T20:42:43.871Z,7.70
2022-11-16T20:45:11.189Z,7.70
2022-11-16T20:47:37.802Z,7.70
2022-11-16T20:50:09.007Z,7.70
2022-11-16T20:52:39.639Z,7.70
2022-11-16T20:55:09.650Z,7.70
2022-11-16T20:57:36.402Z,7.70
2022-11-16T21:00:07.659Z,7.70
2022-11-16T21:02:34.463Z,7.70
2022-11-16T21:05:06.362Z,7.70
2022-11-16T21:07:33.365Z,7.70
2022-11-16T21:10:18.467Z,7.70
2022-11-16T21:13:14.221Z,7.70
2022-11-16T21:15:40.899Z,7.70
2022-11-16T21:18:08.349Z,7.70
2022-11-16T21:20:35.035Z,7.70
2022-11-16T21:23:02.204Z,7.70
2022-11-16T21:25:28.826Z,7.70
2022-11-16T21:27:57.040Z,7.70
2022-11-16T21:30:23.779Z,7.70
2022-11-16T21:32:50.455Z,7.70
2022-11-16T21:35:17.842Z,7.70
2022-11-16T21:37:44.466Z,7.70
2022-11-16T21:40:11.572Z,7.70
2022-11-16T21:42:38.356Z,7.70
2022-11-16T21:45:05.286Z,7.80
2022-11-16T21:47:31.934Z,7.80
2022-11-16T21:50:30.163Z,7.70
2022-11-16T21:52:45.345Z,7.80
2022-11-16T21:55:12.084Z,7.80
2022-11-16T21:57:39.030Z,7.80
2022-11-16T22:00:06.248Z,7.90
2022-11-16T22:02:32.898Z,7.80
2022-11-16T22:05:18.366Z,7.00
2022-11-16T22:07:44.965Z,7.90
2022-11-16T22:10:12.154Z,7.90
2022-11-16T22:12:38.908Z,7.90
2022-11-16T22:15:05.903Z,7.90
2022-11-16T22:17:32.550Z,7.90
2022-11-16T22:20:00.351Z,7.80
2022-11-16T22:22:27.273Z,7.90
2022-11-16T22:24:54.244Z,7.90
2022-11-16T22:27:21.100Z,7.90
2022-11-16T22:29:47.758Z,7.90
2022-11-16T22:32:14.395Z,7.90
2022-11-16T22:34:41.093Z,7.90
2022-11-16T22:37:07.732Z,7.90
2022-11-16T22:39:34.700Z,7.90
2022-11-16T22:42:01.368Z,7.90
2022-11-16T22:44:28.006Z,7.90
2022-11-16T22:46:54.649Z,7.80
2022-11-16T22:49:21.258Z,7.90
2022-11-16T22:51:47.920Z,7.80
2022-11-16T22:54:15.651Z,7.80
2022-11-16T22:56:42.609Z,7.90
2022-11-16T22:59:09.820Z,7.90
2022-11-16T23:01:36.743Z,7.90
2022-11-16T23:04:03.481Z,7.90
2022-11-16T23:06:30.202Z,7.90
2022-11-16T23:08:56.880Z,7.90
2022-11-16T23:11:42.218Z,7.90
2022-11-16T23:14:34.224Z,7.90
2022-11-16T23:17:01.115Z,7.80
2022-11-16T23:19:46.406Z,7.80
2022-11-16T23:22:32.454Z,7.80
2022-11-16T23:25:17.610Z,7.80
2022-11-16T23:27:44.259Z,7.70
2022-11-16T23:30:13.075Z,7.70
2022-11-16T23:32:40.341Z,7.70
2022-11-16T23:35:07.122Z,7.70
2022-11-16T23:37:33.836Z,7.70
2022-11-16T23:40:00.462Z,7.70
2022-11-16T23:42:46.004Z,7.80
2022-11-16T23:45:12.631Z,7.70
2022-11-16T23:47:39.250Z,7.80
2022-11-16T23:50:05.971Z,7.90
2022-11-16T23:52:32.573Z,7.90
2022-11-16T23:54:59.211Z,7.90
2022-11-16T23:57:25.845Z,7.90
2022-11-16T23:59:52.469Z,8.00
